Svanen — LKXK — position and weather

sailwx.info

Track history (hours):
 
Tides and Currents Weather Stations Pressure Air Temp Water Temp Dewpoint Dewpoint Depression Visibility Wind Speed Wind Dir Waves Ship Positions

Svanen (Norway)

Ship's website: http://www.svanen.no/english/english.php1

Last reported at 2015-Jul-04 19:12 UTC. Time now 2015-Jul-04 20:44 UTC.
Position N 59°16' E 010°24'.

Length 27 m; draft 2.8 m.

Type: Sailing vessel. MMSI: 259173000.

Date/timePositionNaut miles runAvg speedWind from/ knotsBaromVisibWave heightAir tempDewpointWater temp
2015-Jul-04 19:12N 59°16' E 010°24'0 0.0
2015-Jul-04 16:18N 59°16' E 010°24'0 0.0
2015-Jul-04 13:09N 59°16' E 010°24'0 0.0
2015-Jul-04 10:15N 59°16' E 010°24'0 0.0
2015-Jul-03 17:06N 59°16' E 010°24'0 0.0
2015-Jul-03 13:27N 59°16' E 010°24'0 0.0
2015-Jul-03 11:33N 59°16' E 010°24'6 5.0
2015-Jul-03 10:27N 59°11' E 010°22'5 5.5
2015-Jul-03 09:33N 59°08' E 010°30'4 4.2
2015-Jul-03 08:33N 59°12' E 010°34'0 0.0
2015-Jul-03 07:33N 59°12' E 010°34'0 0.0
2015-Jul-03 06:33N 59°12' E 010°34'0 0.0
2015-Jul-03 05:33N 59°12' E 010°34'0 0.0
2015-Jul-03 04:33N 59°12' E 010°34'0 0.0
2015-Jul-03 03:33N 59°12' E 010°34'0 0.0
2015-Jul-03 02:33N 59°12' E 010°34'0 0.0
2015-Jul-03 01:33N 59°12' E 010°34'0 0.0
2015-Jul-03 00:33N 59°12' E 010°34'0 0.0
2015-Jul-02 23:34N 59°12' E 010°34'0 0.0
2015-Jul-02 22:33N 59°12' E 010°34'0 0.0
2015-Jul-02 21:33N 59°12' E 010°34'0 0.0
2015-Jul-02 20:33N 59°12' E 010°34'0 0.0
2015-Jul-02 19:33N 59°12' E 010°34'0 0.0
2015-Jul-02 18:33N 59°12' E 010°34'0 0.0
2015-Jul-02 17:33N 59°12' E 010°34'0 0.0
2015-Jul-02 16:33N 59°12' E 010°34'0 0.0
2015-Jul-02 15:33N 59°12' E 010°34'0 0.3
2015-Jul-02 14:33N 59°12' E 010°34'4 4.1
2015-Jul-02 13:33N 59°08' E 010°37'6 5.7
2015-Jul-02 12:33N 59°05' E 010°45'5 5.1
2015-Jul-02 11:33N 59°01' E 010°53'4 4.1
2015-Jul-02 10:33N 59°01' E 011°01'1 0.1
2015-Jul-02 04:32N 59°01' E 011°02'0 0.0
2015-Jul-02 03:32N 59°01' E 011°02'0 0.0
2015-Jul-02 02:29N 59°01' E 011°02'0 0.0
2015-Jul-02 00:29N 59°01' E 011°02'0 0.0
2015-Jul-01 22:20N 59°01' E 011°02'0 0.0
2015-Jul-01 21:32N 59°01' E 011°02'0 0.0
2015-Jul-01 20:29N 59°01' E 011°02'0 0.0
2015-Jul-01 18:17N 59°01' E 011°02'0 0.0
2015-Jul-01 17:29N 59°01' E 011°02'1 1.5
2015-Jul-01 16:33N 59°01' E 010°60'5 5.4
2015-Jul-01 15:33N 59°01' E 010°49'6 5.5
2015-Jul-01 14:33N 59°01' E 010°39'5 5.5
2015-Jul-01 13:33N 58°60' E 010°28'5 5.0
2015-Jul-01 12:33N 58°60' E 010°19'3 3.2
2015-Jul-01 11:33N 58°59' E 010°13'3 2.7
2015-Jul-01 10:33N 58°60' E 010°07'2 1.9
2015-Jul-01 09:33N 59°00' E 010°04'1 0.6
2015-Jul-01 08:27N 58°60' E 010°02'0 0.0
2015-Jul-01 07:33N 58°60' E 010°02'0 0.0
2015-Jul-01 06:33N 58°60' E 010°02'0 0.0
2015-Jul-01 05:27N 58°60' E 010°02'0 0.0
2015-Jul-01 04:30N 58°60' E 010°02'0 0.0
2015-Jul-01 03:30N 58°60' E 010°02'0 0.0
2015-Jul-01 02:33N 58°60' E 010°02'0 0.0
2015-Jul-01 01:24N 58°60' E 010°02'0 0.0
2015-Jul-01 00:30N 58°60' E 010°02'0 0.0
2015-Jun-30 23:30N 58°60' E 010°02'0 0.0
2015-Jun-30 22:33N 58°60' E 010°02'0 0.0
2015-Jun-30 21:33N 58°60' E 010°02'0 0.0
2015-Jun-30 20:33N 58°60' E 010°02'0 0.0
2015-Jun-30 19:30N 58°60' E 010°02'0 0.0
2015-Jun-30 17:33N 58°60' E 010°02'0 0.0
2015-Jun-30 16:33N 58°60' E 010°02'0 0.0
2015-Jun-30 15:33N 58°60' E 010°02'1 0.8
2015-Jun-30 14:34N 58°59' E 010°03'8 7.6
2015-Jun-30 13:33N 59°01' E 010°17'5 5.2
2015-Jun-30 12:33N 59°05' E 010°23'2 2.1
2015-Jun-30 11:33N 59°08' E 010°23'2 2.0
2015-Jun-30 10:33N 59°09' E 010°22'3 3.1
2015-Jun-30 09:33N 59°13' E 010°21'0 0.0
2015-Jun-30 08:32N 59°13' E 010°21'0 0.0
2015-Jun-30 07:32N 59°13' E 010°21'0 0.0
2015-Jun-30 06:32N 59°13' E 010°21'0 0.0
2015-Jun-30 05:32N 59°13' E 010°21'0 0.0
2015-Jun-30 04:29N 59°13' E 010°21'0 0.0
2015-Jun-30 03:32N 59°13' E 010°21'0 0.0
2015-Jun-30 02:33N 59°13' E 010°21'0 0.0
2015-Jun-30 01:32N 59°13' E 010°21'0 0.0
2015-Jun-30 00:32N 59°13' E 010°21'0 0.0
2015-Jun-29 23:32N 59°13' E 010°21'0 0.0
2015-Jun-29 22:32N 59°13' E 010°21'0 0.0
2015-Jun-29 21:32N 59°13' E 010°21'0 0.0
2015-Jun-29 20:29N 59°13' E 010°21'0 0.0
2015-Jun-29 19:32N 59°13' E 010°21'0 0.0
2015-Jun-29 18:32N 59°13' E 010°21'0 0.0
2015-Jun-29 17:32N 59°13' E 010°21'0 0.0
2015-Jun-29 16:32N 59°13' E 010°21'0 0.0
2015-Jun-29 15:32N 59°13' E 010°21'0 0.0
2015-Jun-29 14:32N 59°13' E 010°21'0 0.0
2015-Jun-29 13:33N 59°13' E 010°21'3 2.9
2015-Jun-29 12:31N 59°15' E 010°23'1 0.0
2015-Jun-28 11:11N 59°16' E 010°24'0 0.0
2015-Jun-26 10:33N 59°16' E 010°24'4 4.4
2015-Jun-26 09:34N 59°12' E 010°21'2 2.1
2015-Jun-26 08:33N 59°10' E 010°23'0 0.0
2015-Jun-26 07:32N 59°10' E 010°23'0 0.0
2015-Jun-26 06:32N 59°10' E 010°23'0 0.0
2015-Jun-26 05:32N 59°10' E 010°23'0 0.0
2015-Jun-26 04:32N 59°10' E 010°23'0 0.0
2015-Jun-26 03:32N 59°10' E 010°23'0 0.0
2015-Jun-26 02:32N 59°10' E 010°23'0 0.0
2015-Jun-26 01:32N 59°10' E 010°23'0 0.0
2015-Jun-26 00:32N 59°10' E 010°23'0 0.0
2015-Jun-25 23:32N 59°10' E 010°23'0 0.0
2015-Jun-25 22:32N 59°10' E 010°23'0 0.0
2015-Jun-25 21:32N 59°10' E 010°23'0 0.0
2015-Jun-25 20:32N 59°10' E 010°23'0 0.0
2015-Jun-25 19:32N 59°10' E 010°23'0 0.0
2015-Jun-25 18:32N 59°10' E 010°23'0 0.0
2015-Jun-25 17:32N 59°10' E 010°23'0 0.0
2015-Jun-25 16:32N 59°10' E 010°23'0 0.0
2015-Jun-25 15:32N 59°10' E 010°23'0 0.3
2015-Jun-25 14:33N 59°10' E 010°24'6 5.6
2015-Jun-25 13:34N 59°07' E 010°33'5 5.4
2015-Jun-25 12:33N 59°04' E 010°42'6 5.9
2015-Jun-25 11:33N 59°01' E 010°52'8 6.8
2015-Jun-25 10:25N 58°57' E 011°04'  
Track history (hours):
 
Tides and Currents Weather Stations Pressure Air Temp Water Temp Dewpoint Dewpoint Depression Visibility Wind Speed Wind Dir Waves Ship Positions

Svanen (Norway)

Ship's website: http://www.svanen.no/english/english.php1

Last reported at 2015-Jul-04 19:12 UTC. Time now 2015-Jul-04 20:44 UTC.
Position N 59°16' E 010°24'.

Length 27 m; draft 2.8 m.

Type: Sailing vessel. MMSI: 259173000.

Date/timePositionNaut miles runAvg speedWind from/ knotsBaromVisibWave heightAir tempDewpointWater temp
2015-Jul-04 19:12N 59°16' E 010°24'0 0.0
2015-Jul-04 16:18N 59°16' E 010°24'0 0.0
2015-Jul-04 13:09N 59°16' E 010°24'0 0.0
2015-Jul-04 10:15N 59°16' E 010°24'0 0.0
2015-Jul-03 17:06N 59°16' E 010°24'0 0.0
2015-Jul-03 13:27N 59°16' E 010°24'0 0.0
2015-Jul-03 11:33N 59°16' E 010°24'6 5.0
2015-Jul-03 10:27N 59°11' E 010°22'5 5.5
2015-Jul-03 09:33N 59°08' E 010°30'4 4.2
2015-Jul-03 08:33N 59°12' E 010°34'0 0.0
2015-Jul-03 07:33N 59°12' E 010°34'0 0.0
2015-Jul-03 06:33N 59°12' E 010°34'0 0.0
2015-Jul-03 05:33N 59°12' E 010°34'0 0.0
2015-Jul-03 04:33N 59°12' E 010°34'0 0.0
2015-Jul-03 03:33N 59°12' E 010°34'0 0.0
2015-Jul-03 02:33N 59°12' E 010°34'0 0.0
2015-Jul-03 01:33N 59°12' E 010°34'0 0.0
2015-Jul-03 00:33N 59°12' E 010°34'0 0.0
2015-Jul-02 23:34N 59°12' E 010°34'0 0.0
2015-Jul-02 22:33N 59°12' E 010°34'0 0.0
2015-Jul-02 21:33N 59°12' E 010°34'0 0.0
2015-Jul-02 20:33N 59°12' E 010°34'0 0.0
2015-Jul-02 19:33N 59°12' E 010°34'0 0.0
2015-Jul-02 18:33N 59°12' E 010°34'0 0.0
2015-Jul-02 17:33N 59°12' E 010°34'0 0.0
2015-Jul-02 16:33N 59°12' E 010°34'0 0.0
2015-Jul-02 15:33N 59°12' E 010°34'0 0.3
2015-Jul-02 14:33N 59°12' E 010°34'4 4.1
2015-Jul-02 13:33N 59°08' E 010°37'6 5.7
2015-Jul-02 12:33N 59°05' E 010°45'5 5.1
2015-Jul-02 11:33N 59°01' E 010°53'4 4.1
2015-Jul-02 10:33N 59°01' E 011°01'1 0.1
2015-Jul-02 04:32N 59°01' E 011°02'0 0.0
2015-Jul-02 03:32N 59°01' E 011°02'0 0.0
2015-Jul-02 02:29N 59°01' E 011°02'0 0.0
2015-Jul-02 00:29N 59°01' E 011°02'0 0.0
2015-Jul-01 22:20N 59°01' E 011°02'0 0.0
2015-Jul-01 21:32N 59°01' E 011°02'0 0.0
2015-Jul-01 20:29N 59°01' E 011°02'0 0.0
2015-Jul-01 18:17N 59°01' E 011°02'0 0.0
2015-Jul-01 17:29N 59°01' E 011°02'1 1.5
2015-Jul-01 16:33N 59°01' E 010°60'5 5.4
2015-Jul-01 15:33N 59°01' E 010°49'6 5.5
2015-Jul-01 14:33N 59°01' E 010°39'5 5.5
2015-Jul-01 13:33N 58°60' E 010°28'5 5.0
2015-Jul-01 12:33N 58°60' E 010°19'3 3.2
2015-Jul-01 11:33N 58°59' E 010°13'3 2.7
2015-Jul-01 10:33N 58°60' E 010°07'2 1.9
2015-Jul-01 09:33N 59°00' E 010°04'1 0.6
2015-Jul-01 08:27N 58°60' E 010°02'0 0.0
2015-Jul-01 07:33N 58°60' E 010°02'0 0.0
2015-Jul-01 06:33N 58°60' E 010°02'0 0.0
2015-Jul-01 05:27N 58°60' E 010°02'0 0.0
2015-Jul-01 04:30N 58°60' E 010°02'0 0.0
2015-Jul-01 03:30N 58°60' E 010°02'0 0.0
2015-Jul-01 02:33N 58°60' E 010°02'0 0.0
2015-Jul-01 01:24N 58°60' E 010°02'0 0.0
2015-Jul-01 00:30N 58°60' E 010°02'0 0.0
2015-Jun-30 23:30N 58°60' E 010°02'0 0.0
2015-Jun-30 22:33N 58°60' E 010°02'0 0.0
2015-Jun-30 21:33N 58°60' E 010°02'0 0.0
2015-Jun-30 20:33N 58°60' E 010°02'0 0.0
2015-Jun-30 19:30N 58°60' E 010°02'0 0.0
2015-Jun-30 17:33N 58°60' E 010°02'0 0.0
2015-Jun-30 16:33N 58°60' E 010°02'0 0.0
2015-Jun-30 15:33N 58°60' E 010°02'1 0.8
2015-Jun-30 14:34N 58°59' E 010°03'8 7.6
2015-Jun-30 13:33N 59°01' E 010°17'5 5.2
2015-Jun-30 12:33N 59°05' E 010°23'2 2.1
2015-Jun-30 11:33N 59°08' E 010°23'2 2.0
2015-Jun-30 10:33N 59°09' E 010°22'3 3.1
2015-Jun-30 09:33N 59°13' E 010°21'0 0.0
2015-Jun-30 08:32N 59°13' E 010°21'0 0.0
2015-Jun-30 07:32N 59°13' E 010°21'0 0.0
2015-Jun-30 06:32N 59°13' E 010°21'0 0.0
2015-Jun-30 05:32N 59°13' E 010°21'0 0.0
2015-Jun-30 04:29N 59°13' E 010°21'0 0.0
2015-Jun-30 03:32N 59°13' E 010°21'0 0.0
2015-Jun-30 02:33N 59°13' E 010°21'0 0.0
2015-Jun-30 01:32N 59°13' E 010°21'0 0.0
2015-Jun-30 00:32N 59°13' E 010°21'0 0.0
2015-Jun-29 23:32N 59°13' E 010°21'0 0.0
2015-Jun-29 22:32N 59°13' E 010°21'0 0.0
2015-Jun-29 21:32N 59°13' E 010°21'0 0.0
2015-Jun-29 20:29N 59°13' E 010°21'0 0.0
2015-Jun-29 19:32N 59°13' E 010°21'0 0.0
2015-Jun-29 18:32N 59°13' E 010°21'0 0.0
2015-Jun-29 17:32N 59°13' E 010°21'0 0.0
2015-Jun-29 16:32N 59°13' E 010°21'0 0.0
2015-Jun-29 15:32N 59°13' E 010°21'0 0.0
2015-Jun-29 14:32N 59°13' E 010°21'0 0.0
2015-Jun-29 13:33N 59°13' E 010°21'3 2.9
2015-Jun-29 12:31N 59°15' E 010°23'1 0.0
2015-Jun-28 11:11N 59°16' E 010°24'0 0.0
2015-Jun-26 10:33N 59°16' E 010°24'4 4.4
2015-Jun-26 09:34N 59°12' E 010°21'2 2.1
2015-Jun-26 08:33N 59°10' E 010°23'0 0.0
2015-Jun-26 07:32N 59°10' E 010°23'0 0.0
2015-Jun-26 06:32N 59°10' E 010°23'0 0.0
2015-Jun-26 05:32N 59°10' E 010°23'0 0.0
2015-Jun-26 04:32N 59°10' E 010°23'0 0.0
2015-Jun-26 03:32N 59°10' E 010°23'0 0.0
2015-Jun-26 02:32N 59°10' E 010°23'0 0.0
2015-Jun-26 01:32N 59°10' E 010°23'0 0.0
2015-Jun-26 00:32N 59°10' E 010°23'0 0.0
2015-Jun-25 23:32N 59°10' E 010°23'0 0.0
2015-Jun-25 22:32N 59°10' E 010°23'0 0.0
2015-Jun-25 21:32N 59°10' E 010°23'0 0.0
2015-Jun-25 20:32N 59°10' E 010°23'0 0.0
2015-Jun-25 19:32N 59°10' E 010°23'0 0.0
2015-Jun-25 18:32N 59°10' E 010°23'0 0.0
2015-Jun-25 17:32N 59°10' E 010°23'0 0.0
2015-Jun-25 16:32N 59°10' E 010°23'0 0.0
2015-Jun-25 15:32N 59°10' E 010°23'0 0.3
2015-Jun-25 14:33N 59°10' E 010°24'6 5.6
2015-Jun-25 13:34N 59°07' E 010°33'5 5.4
2015-Jun-25 12:33N 59°04' E 010°42'6 5.9
2015-Jun-25 11:33N 59°01' E 010°52'8 6.8
2015-Jun-25 10:25N 58°57' E 011°04'  

Dump ship's entire track history